This is the latest recevied weather packets stored in our database for station/object JH7MHZ-13. If no packets are shown the sender has not sent any weather packets the latest 10 day(s).
| Time | Temp. | Humidity | Pressure | Rain* | Wind** | Luminosity | Snow |
|---|---|---|---|---|---|---|---|
| 1778080090 | 8.33° C | 88% | 995.7 hPa | 0 mm | - | - | - |
| 1778076489 | 8.89° C | 85% | 995.4 hPa | 0 mm | - | - | - |
| 1778072889 | 10.56° C | 80% | 995.4 hPa | 0 mm | - | - | - |
| 1778069288 | 11.67° C | 73% | 995.9 hPa | 0 mm | - | - | - |
| 1778065688 | 14.44° C | 66% | 996.2 hPa | 0 mm | - | - | - |
| 1778062087 | 16.67° C | 51% | 996 hPa | 0 mm | - | - | - |
| 1778058486 | 18.89° C | 41% | 995.9 hPa | 0 mm | - | - | - |
| 1778054886 | 20.56° C | 35% | 995.9 hPa | 0 mm | - | - | - |
| 1778051287 | 23.33° C | 34% | 995.9 hPa | 0 mm | - | - | - |
| 1778047685 | 23.89° C | 33% | 995.9 hPa | 0 mm | - | - | - |
| 1778044085 | 24.44° C | 40% | 996.5 hPa | 0 mm | - | - | - |
| 1778040485 | 23.89° C | 41% | 997.1 hPa | 0 mm | - | - | - |
| 1778036883 | 23.33° C | 38% | 998 hPa | 0 mm | - | - | - |
| 1778033284 | 22.78° C | 41% | 998.8 hPa | 0 mm | - | - | - |
| 1778029682 | 22.22° C | 41% | 999.2 hPa | 0 mm | - | - | - |
| 1778026081 | 21.11° C | 42% | 999.1 hPa | 0 mm | - | - | - |
| 1778018880 | 10° C | 82% | 999.9 hPa | 0 mm | - | - | - |
| 1778015280 | 7.78° C | 90% | 999.9 hPa | 0 mm | - | - | - |
| 1778011679 | 2.78° C | 95% | 999.2 hPa | 0 mm | - | - | - |
| 1778008078 | 2.78° C | 95% | 998.6 hPa | 0 mm | - | - | - |
| 1778004478 | 2.78° C | 94% | 998.9 hPa | 0 mm | - | - | - |
| 1778000877 | 3.89° C | 92% | 998.7 hPa | 0 mm | - | - | - |
| 1777997277 | 3.89° C | 91% | 998.1 hPa | 0 mm | - | - | - |
| 1777993676 | 5° C | 88% | 998.3 hPa | 0 mm | - | - | - |
| 1777990076 | 6.11° C | 86% | 997.6 hPa | 0 mm | - | - | - |
* Rain latest hour (hover to see other rain measurements)
** Current wind speed in m/s (hover to see current wind gust speed)